»·PEaware :: N3KW KTVL-KRNO

N3KW :: KTVL-KRNO

FLIGHT INFORMATION

Flight Status: Arrived
Operator: Privately registered:
United States
More flights under this callsign
Pilot: Matteo M. (13094)
Aircraft: Unknown
(B407)
More flights by this aircraft type
Origin: KTVL Lake Tahoe
United States
Destination: KRNO Reno/Tahoe Intl
United States
More flights between these airports :: More routes between these airports
Route: MARRI V165 FMG
File this flight plan on PilotEdge
Remarks:
Altitude:
(Current/Filed)
13,000ft
Speed:
(Current/Filed)
130kts
Departed: 11-May-19 07:12 PM
Arrived: 11-May-19 07:39 PM
Distance/Time
Traveled:
37nm/0:27
Distance/Time
To Go:
Arrived

Flight Plot

Page will automatically refresh every two minutes.

Flight plan parsing failed; only flown route is shown


Map Options




Map Legend


Flown Route
Filed Route
Departure Airport
Arrival Airport
Navaid (VOR, NDB)
Fix

Horizontal Profiles

Position Reports

Time Latitude Longitude Heading Altitude Ground
Speed
11-May-19 18:52 38.893457 -119.997626 44 6237ft 0kts
11-May-19 18:53 38.893457 -119.997626 44 6237ft 0kts
11-May-19 18:54 38.893457 -119.997626 44 6237ft 0kts
11-May-19 18:55 38.893457 -119.997626 44 6237ft 0kts
11-May-19 18:56 38.893457 -119.997626 44 6237ft 0kts
11-May-19 18:57 38.893457 -119.997626 44 6237ft 0kts
11-May-19 18:58 38.893457 -119.997626 44 6237ft 0kts
11-May-19 18:59 38.893457 -119.997626 44 6237ft 0kts
11-May-19 19:00 38.893457 -119.997626 44 6237ft 0kts
11-May-19 19:01 38.893457 -119.997626 44 6237ft 0kts
11-May-19 19:02 38.893457 -119.997626 44 6237ft 0kts
11-May-19 19:03 38.893457 -119.997626 44 6237ft 0kts
11-May-19 19:04 38.893457 -119.997626 44 6237ft 0kts
11-May-19 19:05 38.893457 -119.997626 44 6237ft 0kts
11-May-19 19:06 38.893457 -119.997626 44 6237ft 0kts
11-May-19 19:07 38.893457 -119.997626 44 6237ft 0kts
11-May-19 19:08 38.893457 -119.997626 44 6237ft 0kts
11-May-19 19:09 38.893457 -119.997626 44 6237ft 0kts
11-May-19 19:10 38.893457 -119.997626 44 6237ft 0kts
11-May-19 19:11 38.893444 -119.997562 61 6246ft 4kts
11-May-19 19:12 38.911512 -119.996248 336 6985ft 104kts
11-May-19 19:13 38.941951 -120.008712 342 7876ft 114kts
11-May-19 19:14 38.969883 -120.021146 332 9214ft 99kts
11-May-19 19:15 38.991566 -120.037981 329 10766ft 87kts
11-May-19 19:15 39.005825 -120.051544 332 12226ft 71kts
11-May-19 19:17 39.028293 -120.075321 323 13087ft 121kts
11-May-19 19:17 39.048257 -120.098874 321 13098ft 116kts
11-May-19 19:19 39.075283 -120.132830 319 13109ft 116kts
11-May-19 19:20 39.098105 -120.162386 319 13109ft 116kts
11-May-19 19:20 39.118238 -120.184359 354 13105ft 110kts
11-May-19 19:22 39.144922 -120.157064 43 13109ft 111kts
11-May-19 19:22 39.162761 -120.133213 42 13111ft 110kts
11-May-19 19:23 39.184380 -120.104909 42 13101ft 111kts
11-May-19 19:24 39.206198 -120.076676 41 13105ft 111kts
11-May-19 19:25 39.228078 -120.048509 41 13107ft 111kts
11-May-19 19:26 39.249945 -120.020472 41 13095ft 111kts
11-May-19 19:27 39.271916 -119.992275 41 13093ft 112kts
11-May-19 19:28 39.294139 -119.963811 41 13086ft 112kts
11-May-19 19:29 39.316490 -119.935063 41 13075ft 113kts
11-May-19 19:30 39.338781 -119.906413 41 13061ft 113kts
11-May-19 19:31 39.360478 -119.878537 41 13048ft 114kts
11-May-19 19:32 39.382935 -119.850674 27 12847ft 117kts
11-May-19 19:33 39.414702 -119.841387 5 11477ft 114kts
11-May-19 19:34 39.442917 -119.835668 9 10206ft 91kts
11-May-19 19:35 39.461182 -119.836017 322 8461ft 83kts
11-May-19 19:36 39.464892 -119.819592 87 6693ft 86kts
11-May-19 19:37 39.478752 -119.794705 43 5307ft 92kts
11-May-19 19:38 39.492557 -119.776467 41 4593ft 23kts
11-May-19 19:39 39.493044 -119.774104 93 4415ft 0kts
11-May-19 19:40 39.493044 -119.774104 94 4415ft 0kts
11-May-19 19:41 39.493044 -119.774104 94 4415ft 0kts

Navigation Log

Ident Type
Flight plan parsing failed, navigation log unavailable